createdAt,value
2018-02-12T00:00:42.589Z,2.10
2018-02-12T00:03:10.816Z,2.10
2018-02-12T00:05:38.997Z,2.10
2018-02-12T00:08:07.955Z,2.10
2018-02-12T00:10:36.118Z,2.10
2018-02-12T00:13:04.300Z,2.10
2018-02-12T00:15:32.457Z,2.10
2018-02-12T00:18:00.619Z,2.20
2018-02-12T00:20:28.775Z,2.20
2018-02-12T00:22:57.776Z,2.10
2018-02-12T00:25:25.931Z,2.10
2018-02-12T00:27:54.868Z,2.10
2018-02-12T00:30:23.052Z,2.10
2018-02-12T00:32:51.232Z,2.10
2018-02-12T00:35:19.396Z,2.20
2018-02-12T00:37:47.574Z,2.20
2018-02-12T00:40:15.767Z,2.20
2018-02-12T00:42:43.941Z,2.20
2018-02-12T00:45:12.106Z,2.20
2018-02-12T00:47:40.292Z,2.20
2018-02-12T00:50:08.466Z,2.20
2018-02-12T00:52:36.634Z,2.20
2018-02-12T00:55:04.813Z,2.20
2018-02-12T00:57:32.981Z,2.20
2018-02-12T01:00:01.175Z,2.20
2018-02-12T01:02:29.370Z,2.20
2018-02-12T01:04:58.301Z,2.20
2018-02-12T01:07:26.481Z,2.10
2018-02-12T01:09:54.638Z,2.20
2018-02-12T01:12:22.821Z,2.20
2018-02-12T01:14:50.988Z,2.20
2018-02-12T01:17:19.150Z,2.20
2018-02-12T01:19:47.323Z,2.20
2018-02-12T01:22:16.278Z,2.20
2018-02-12T01:24:44.442Z,2.10
2018-02-12T01:27:12.605Z,2.20
2018-02-12T01:29:40.766Z,2.20
2018-02-12T01:32:08.958Z,2.20
2018-02-12T01:34:37.114Z,2.20
2018-02-12T01:37:05.281Z,2.20
2018-02-12T01:39:33.447Z,2.30
2018-02-12T01:42:01.610Z,2.30
2018-02-12T01:44:30.539Z,2.30
2018-02-12T01:46:58.700Z,2.20
2018-02-12T01:49:26.903Z,2.30
2018-02-12T01:51:55.126Z,2.30
2018-02-12T01:54:23.270Z,2.30
2018-02-12T01:56:51.447Z,2.30
2018-02-12T01:59:19.625Z,2.30
2018-02-12T02:01:47.788Z,2.40
2018-02-12T02:04:15.971Z,2.40
2018-02-12T02:06:44.129Z,2.40
2018-02-12T02:09:12.297Z,2.30
2018-02-12T02:11:40.453Z,2.30
2018-02-12T02:14:08.726Z,2.20
2018-02-12T02:16:36.914Z,2.10
2018-02-12T02:19:05.073Z,2.10
2018-02-12T02:21:33.258Z,2.00
2018-02-12T02:24:01.423Z,1.90
2018-02-12T02:26:29.580Z,1.90
2018-02-12T02:28:57.762Z,1.90
2018-02-12T02:31:25.929Z,1.90
2018-02-12T02:33:54.091Z,1.80
2018-02-12T02:36:23.018Z,1.80
2018-02-12T02:38:51.188Z,1.70
2018-02-12T02:41:19.354Z,1.80
2018-02-12T02:43:47.533Z,1.70
2018-02-12T02:46:15.691Z,1.70
2018-02-12T02:48:43.894Z,1.80
2018-02-12T02:51:12.071Z,1.80
2018-02-12T02:53:40.242Z,1.80
2018-02-12T02:56:08.423Z,1.80
2018-02-12T02:58:36.606Z,1.80
2018-02-12T03:01:04.763Z,1.80
2018-02-12T03:03:32.946Z,1.80
2018-02-12T03:06:01.114Z,1.80
2018-02-12T03:08:29.285Z,1.80
2018-02-12T03:10:57.495Z,1.80
2018-02-12T03:13:25.655Z,1.80
2018-02-12T03:15:53.821Z,1.80
2018-02-12T03:18:21.999Z,1.80
2018-02-12T03:20:50.182Z,1.80
2018-02-12T03:23:18.373Z,1.90
2018-02-12T03:25:46.537Z,1.90
2018-02-12T03:28:14.701Z,1.90
2018-02-12T03:30:42.859Z,1.90
2018-02-12T03:33:11.046Z,1.90
2018-02-12T03:35:39.204Z,1.90
2018-02-12T03:38:07.386Z,1.90
2018-02-12T03:40:35.564Z,1.80
2018-02-12T03:43:03.721Z,1.80
2018-02-12T03:45:31.914Z,1.80
2018-02-12T03:48:00.104Z,1.80
2018-02-12T03:50:29.063Z,1.80
2018-02-12T03:52:57.225Z,1.70
2018-02-12T03:55:25.417Z,1.80
2018-02-12T03:57:53.585Z,1.80
2018-02-12T04:00:21.778Z,1.70
2018-02-12T04:02:49.938Z,1.70
2018-02-12T04:05:18.097Z,1.70
2018-02-12T04:07:46.289Z,1.70
2018-02-12T04:10:14.469Z,1.70
2018-02-12T04:12:42.638Z,1.70
2018-02-12T04:15:10.795Z,1.70
2018-02-12T04:17:38.948Z,1.80
2018-02-12T04:20:07.895Z,1.80
2018-02-12T04:22:36.345Z,1.80
2018-02-12T04:25:04.529Z,1.90
2018-02-12T04:27:32.699Z,1.90
2018-02-12T04:30:00.850Z,1.90
2018-02-12T04:32:29.776Z,1.90
2018-02-12T04:34:57.939Z,1.80
2018-02-12T04:37:26.114Z,1.90
2018-02-12T04:39:54.269Z,1.90
2018-02-12T04:42:22.440Z,1.90
2018-02-12T04:44:51.421Z,2.00
2018-02-12T04:47:20.341Z,2.00
2018-02-12T04:49:48.514Z,1.90
2018-02-12T04:52:16.702Z,2.00
2018-02-12T04:54:44.862Z,2.00
2018-02-12T04:57:13.026Z,2.00
2018-02-12T04:59:41.187Z,2.00
2018-02-12T05:02:10.116Z,2.00
2018-02-12T05:04:38.272Z,1.90
2018-02-12T05:07:06.442Z,2.00
2018-02-12T05:09:34.610Z,2.00
2018-02-12T05:12:03.562Z,2.00
2018-02-12T05:14:31.726Z,2.00
2018-02-12T05:16:59.901Z,2.00
2018-02-12T05:19:28.057Z,2.00
2018-02-12T05:21:56.229Z,2.00
2018-02-12T05:24:24.386Z,2.00
2018-02-12T05:26:52.562Z,2.00
2018-02-12T05:29:20.755Z,2.00
2018-02-12T05:31:48.913Z,2.00
2018-02-12T05:34:17.102Z,2.00
2018-02-12T05:36:45.267Z,2.00
2018-02-12T05:39:13.430Z,2.00
2018-02-12T05:41:41.624Z,2.00
2018-02-12T05:44:09.782Z,2.00
2018-02-12T05:46:37.954Z,2.10
2018-02-12T05:49:06.148Z,2.00
2018-02-12T05:51:34.316Z,2.10
2018-02-12T05:54:02.473Z,2.10
2018-02-12T05:56:31.426Z,2.20
2018-02-12T05:58:59.602Z,2.10
2018-02-12T06:01:27.825Z,2.20
2018-02-12T06:03:55.988Z,2.10
2018-02-12T06:06:24.931Z,2.10
2018-02-12T06:08:53.090Z,2.00
2018-02-12T06:11:21.255Z,2.10
2018-02-12T06:13:49.437Z,2.10
2018-02-12T06:16:17.630Z,2.00
2018-02-12T06:18:45.789Z,2.10
2018-02-12T06:21:13.964Z,2.10
2018-02-12T06:23:42.209Z,2.10
2018-02-12T06:26:10.379Z,2.10
2018-02-12T06:28:39.318Z,2.10
2018-02-12T06:31:07.511Z,2.00
2018-02-12T06:33:35.692Z,2.10
2018-02-12T06:36:03.869Z,2.10
2018-02-12T06:38:32.033Z,2.10
2018-02-12T06:41:00.242Z,2.10
2018-02-12T06:43:29.178Z,2.20
2018-02-12T06:45:57.375Z,2.10
2018-02-12T06:48:25.561Z,2.20
2018-02-12T06:50:53.749Z,2.20
2018-02-12T06:53:22.730Z,2.30
2018-02-12T06:55:51.010Z,2.30
2018-02-12T06:58:19.210Z,2.30
2018-02-12T07:00:48.164Z,2.30
2018-02-12T07:03:16.373Z,2.30
2018-02-12T07:05:45.304Z,2.30
2018-02-12T07:08:13.511Z,2.20
2018-02-12T07:10:41.697Z,2.30
2018-02-12T07:13:09.872Z,2.30
2018-02-12T07:15:38.100Z,2.30
2018-02-12T07:18:06.316Z,2.20
2018-02-12T07:20:34.477Z,2.30
2018-02-12T07:23:03.428Z,2.30
2018-02-12T07:25:31.632Z,2.20
2018-02-12T07:27:59.835Z,2.30
2018-02-12T07:30:28.007Z,2.30
2018-02-12T07:32:56.334Z,2.40
2018-02-12T07:35:24.549Z,2.40
2018-02-12T07:37:52.744Z,2.40
2018-02-12T07:40:21.682Z,2.40
2018-02-12T07:42:49.909Z,2.30
2018-02-12T07:45:18.886Z,2.40
2018-02-12T07:47:47.074Z,2.40
2018-02-12T07:50:15.251Z,2.40
2018-02-12T07:52:43.434Z,2.40
2018-02-12T07:55:12.384Z,2.50
2018-02-12T07:57:40.586Z,2.40
2018-02-12T08:00:08.836Z,2.50
2018-02-12T08:02:37.045Z,2.50
2018-02-12T08:05:05.264Z,2.50
2018-02-12T08:07:33.439Z,2.50
2018-02-12T08:10:01.657Z,2.50
2018-02-12T08:12:29.845Z,2.60
2018-02-12T08:14:58.075Z,2.60
2018-02-12T08:17:26.386Z,2.60
2018-02-12T08:19:54.578Z,2.60
2018-02-12T08:22:23.531Z,2.70
2018-02-12T08:24:51.707Z,2.70
2018-02-12T08:27:19.872Z,2.70
2018-02-12T08:29:48.083Z,2.70
2018-02-12T08:32:16.273Z,2.70
2018-02-12T08:34:45.226Z,2.70
2018-02-12T08:37:13.433Z,2.60
2018-02-12T08:39:41.602Z,2.70
2018-02-12T08:42:09.777Z,2.70
2018-02-12T08:44:37.964Z,2.70
2018-02-12T08:47:06.915Z,2.80
2018-02-12T08:49:35.158Z,2.70
2018-02-12T08:52:03.348Z,2.70
2018-02-12T08:54:31.527Z,2.70
2018-02-12T08:56:59.712Z,2.70
2018-02-12T08:59:28.426Z,2.70
2018-02-12T09:01:56.623Z,2.70
2018-02-12T09:04:25.587Z,2.70
2018-02-12T09:06:53.792Z,2.60
2018-02-12T09:09:22.735Z,2.70
2018-02-12T09:11:51.002Z,2.60
2018-02-12T09:14:19.388Z,2.60
2018-02-12T09:16:47.562Z,2.60
2018-02-12T09:19:15.759Z,2.40
2018-02-12T09:21:43.970Z,2.40
2018-02-12T09:24:12.921Z,2.50
2018-02-12T09:26:41.119Z,2.40
2018-02-12T09:29:09.307Z,2.50
2018-02-12T09:31:38.248Z,2.50
2018-02-12T09:34:06.500Z,2.50
2018-02-12T09:36:34.699Z,2.60
2018-02-12T09:39:02.914Z,2.70
2018-02-12T09:41:31.083Z,2.70
2018-02-12T09:43:59.264Z,2.80
2018-02-12T09:46:27.453Z,2.80
2018-02-12T09:48:56.391Z,2.90
2018-02-12T09:51:24.555Z,2.90
2018-02-12T09:53:52.802Z,2.90
2018-02-12T09:56:21.728Z,2.90
2018-02-12T09:58:49.939Z,2.90
2018-02-12T10:01:18.125Z,3.00
2018-02-12T10:03:46.294Z,3.00
2018-02-12T10:06:14.474Z,3.00
2018-02-12T10:08:42.674Z,3.10
2018-02-12T10:11:10.843Z,3.10
2018-02-12T10:13:39.886Z,3.60
2018-02-12T10:16:08.118Z,3.50
2018-02-12T10:18:36.312Z,3.70
2018-02-12T10:21:04.483Z,3.90
2018-02-12T10:23:32.656Z,3.90
2018-02-12T10:26:00.854Z,3.80
2018-02-12T10:28:29.025Z,3.80
2018-02-12T10:30:57.238Z,3.70
2018-02-12T10:33:25.449Z,3.60
2018-02-12T10:35:53.635Z,3.50
2018-02-12T10:38:21.874Z,3.50
2018-02-12T10:40:50.827Z,3.60
2018-02-12T10:43:19.001Z,3.50
2018-02-12T10:45:47.197Z,3.60
2018-02-12T10:48:15.400Z,3.50
2018-02-12T10:50:44.353Z,3.60
2018-02-12T10:53:12.559Z,3.50
2018-02-12T10:55:41.499Z,3.70
2018-02-12T10:58:09.712Z,3.70
2018-02-12T11:00:37.896Z,3.80
2018-02-12T11:03:06.088Z,3.80
2018-02-12T11:05:35.026Z,3.90
2018-02-12T11:08:03.196Z,3.80
2018-02-12T11:10:31.370Z,3.90
2018-02-12T11:12:59.595Z,3.90
2018-02-12T11:15:28.642Z,4.00
2018-02-12T11:17:56.817Z,3.90
2018-02-12T11:20:25.000Z,4.00
2018-02-12T11:22:53.163Z,4.00
2018-02-12T11:25:21.366Z,3.90
2018-02-12T11:27:49.578Z,3.90
2018-02-12T11:30:18.513Z,4.00
2018-02-12T11:32:46.671Z,3.90
2018-02-12T11:35:14.853Z,4.00
2018-02-12T11:37:43.021Z,4.00
2018-02-12T11:40:11.248Z,4.00
2018-02-12T11:42:39.417Z,4.00
2018-02-12T11:45:07.621Z,4.00
2018-02-12T11:47:35.798Z,4.10
2018-02-12T11:50:03.968Z,4.00
2018-02-12T11:52:32.917Z,4.00
2018-02-12T11:55:01.086Z,3.90
2018-02-12T11:57:29.281Z,4.00
2018-02-12T11:59:57.454Z,4.00
2018-02-12T12:02:25.635Z,4.00
2018-02-12T12:04:53.832Z,4.00
2018-02-12T12:07:22.771Z,4.00
2018-02-12T12:09:50.970Z,3.90
2018-02-12T12:12:19.130Z,4.00
2018-02-12T12:14:47.295Z,4.00
2018-02-12T12:17:15.458Z,4.00
2018-02-12T12:19:43.620Z,4.00
2018-02-12T12:22:11.807Z,4.00
2018-02-12T12:24:39.973Z,4.00
2018-02-12T12:27:08.134Z,4.00
2018-02-12T12:29:36.326Z,4.10
2018-02-12T12:32:04.494Z,4.00
2018-02-12T12:34:32.657Z,3.90
2018-02-12T12:37:00.849Z,3.80
2018-02-12T12:39:29.017Z,3.80
2018-02-12T12:41:57.192Z,3.70
2018-02-12T12:44:25.369Z,3.70
2018-02-12T12:46:53.554Z,3.70
2018-02-12T12:49:21.723Z,3.70
2018-02-12T12:51:49.944Z,3.70
2018-02-12T12:54:18.999Z,3.80
2018-02-12T12:56:47.185Z,3.70
2018-02-12T12:59:15.368Z,3.70
2018-02-12T13:01:43.548Z,3.70
2018-02-12T13:04:11.722Z,3.70
2018-02-12T13:06:39.903Z,3.70
2018-02-12T13:09:08.075Z,3.70
2018-02-12T13:11:36.237Z,3.60
2018-02-12T13:14:05.173Z,3.60
2018-02-12T13:16:34.124Z,3.60
2018-02-12T13:19:02.319Z,3.50
2018-02-12T13:21:30.500Z,3.60
2018-02-12T13:23:58.673Z,3.60
2018-02-12T13:26:26.847Z,3.60
2018-02-12T13:28:55.013Z,3.60
2018-02-12T13:31:23.181Z,3.60
2018-02-12T13:33:51.355Z,3.50
2018-02-12T13:36:19.526Z,3.50
2018-02-12T13:38:47.714Z,3.50
2018-02-12T13:41:15.882Z,3.40
2018-02-12T13:43:44.072Z,3.40
2018-02-12T13:46:13.018Z,3.40
2018-02-12T13:48:41.183Z,3.40
2018-02-12T13:51:09.465Z,3.40
2018-02-12T13:53:37.636Z,3.40
2018-02-12T13:56:05.819Z,3.40
2018-02-12T13:58:34.061Z,3.40
2018-02-12T14:01:02.279Z,3.30
2018-02-12T14:03:30.424Z,3.30
2018-02-12T14:05:58.593Z,3.20
2018-02-12T14:08:26.757Z,3.10
2018-02-12T14:10:55.686Z,3.10
2018-02-12T14:13:23.862Z,3.00
2018-02-12T14:15:52.035Z,3.00
2018-02-12T14:18:20.205Z,3.00
2018-02-12T14:20:48.380Z,3.00
2018-02-12T14:23:16.556Z,3.00
2018-02-12T14:25:44.728Z,3.00
2018-02-12T14:28:12.899Z,3.00
2018-02-12T14:30:41.072Z,3.10
2018-02-12T14:33:09.282Z,3.10
2018-02-12T14:35:37.463Z,3.00
2018-02-12T14:38:05.626Z,3.00
2018-02-12T14:40:33.802Z,3.00
2018-02-12T14:43:02.018Z,3.00
2018-02-12T14:45:31.036Z,3.00
2018-02-12T14:47:59.214Z,3.00
2018-02-12T14:50:27.399Z,3.00
2018-02-12T14:52:55.567Z,3.00
2018-02-12T14:55:23.742Z,3.00
2018-02-12T14:57:51.912Z,3.00
2018-02-12T15:00:20.089Z,2.90
2018-02-12T15:02:48.262Z,2.90
2018-02-12T15:05:16.436Z,2.90
2018-02-12T15:07:44.610Z,2.90
2018-02-12T15:10:12.815Z,2.80
2018-02-12T15:12:41.761Z,2.70
2018-02-12T15:15:09.968Z,2.70
2018-02-12T15:17:38.159Z,2.70
2018-02-12T15:20:06.329Z,2.70
2018-02-12T15:22:34.523Z,2.60
2018-02-12T15:25:02.717Z,2.60
2018-02-12T15:27:31.671Z,2.60
2018-02-12T15:29:59.858Z,2.50
2018-02-12T15:32:28.043Z,2.60
2018-02-12T15:34:56.228Z,2.60
2018-02-12T15:37:25.214Z,2.50
2018-02-12T15:39:53.411Z,2.50
2018-02-12T15:42:22.379Z,2.40
2018-02-12T15:44:50.560Z,2.30
2018-02-12T15:47:18.758Z,2.40
2018-02-12T15:49:46.973Z,2.30
2018-02-12T15:52:15.167Z,2.30
2018-02-12T15:54:43.382Z,2.40
2018-02-12T15:57:12.342Z,2.30
2018-02-12T15:59:40.546Z,2.30
2018-02-12T16:02:09.509Z,2.30
2018-02-12T16:04:39.604Z,2.20
2018-02-12T16:07:07.789Z,2.30
2018-02-12T16:09:35.984Z,2.30
2018-02-12T16:12:04.175Z,2.30
2018-02-12T16:14:33.123Z,2.30
2018-02-12T16:17:01.382Z,2.30
2018-02-12T16:19:29.665Z,2.30
2018-02-12T16:21:57.843Z,2.30
2018-02-12T16:24:26.022Z,2.40
2018-02-12T16:26:54.202Z,2.40
2018-02-12T16:29:22.392Z,2.30
2018-02-12T16:31:50.581Z,2.30
2018-02-12T16:34:18.767Z,2.30
2018-02-12T16:36:47.737Z,2.30
2018-02-12T16:39:15.982Z,2.30
2018-02-12T16:41:44.153Z,2.30
2018-02-12T16:44:12.337Z,2.30
2018-02-12T16:46:40.599Z,2.30
2018-02-12T16:49:08.778Z,2.20
2018-02-12T16:51:36.981Z,2.30
2018-02-12T16:54:05.176Z,2.30
2018-02-12T16:56:33.374Z,2.30
2018-02-12T16:59:02.352Z,2.10
2018-02-12T17:01:31.301Z,2.10
2018-02-12T17:03:59.482Z,2.10
2018-02-12T17:06:27.714Z,2.10
2018-02-12T17:08:56.114Z,2.20
2018-02-12T17:11:24.293Z,2.30
2018-02-12T17:13:52.514Z,2.30
2018-02-12T17:16:20.711Z,2.30
2018-02-12T17:18:49.653Z,2.20
2018-02-12T17:21:17.842Z,2.20
2018-02-12T17:23:46.026Z,2.20
2018-02-12T17:26:14.202Z,2.10
2018-02-12T17:28:42.399Z,2.10
2018-02-12T17:31:11.339Z,2.20
2018-02-12T17:33:39.533Z,2.10
2018-02-12T17:36:07.702Z,2.20
2018-02-12T17:38:35.866Z,2.20
2018-02-12T17:41:04.060Z,2.20
2018-02-12T17:43:32.257Z,2.20
2018-02-12T17:46:01.197Z,2.30
2018-02-12T17:48:29.414Z,2.30
2018-02-12T17:50:57.612Z,2.30
2018-02-12T17:53:26.554Z,2.40
2018-02-12T17:55:54.734Z,2.30
2018-02-12T17:58:22.924Z,2.40
2018-02-12T18:00:51.170Z,2.40
2018-02-12T18:03:19.384Z,2.40
2018-02-12T18:05:47.622Z,2.40
2018-02-12T18:08:15.823Z,2.40
2018-02-12T18:10:44.011Z,2.30
2018-02-12T18:13:12.188Z,2.30
2018-02-12T18:15:40.362Z,2.30
2018-02-12T18:18:08.536Z,2.30
2018-02-12T18:20:36.713Z,2.30
2018-02-12T18:23:04.882Z,2.40
2018-02-12T18:25:33.078Z,2.40
2018-02-12T18:28:02.014Z,2.40
2018-02-12T18:30:30.196Z,2.40
2018-02-12T18:32:58.366Z,2.40
2018-02-12T18:35:27.401Z,2.40
2018-02-12T18:37:56.351Z,2.40
2018-02-12T18:40:24.552Z,2.40
2018-02-12T18:42:55.972Z,2.40
2018-02-12T18:58:24.186Z,2.40
2018-02-12T19:00:53.150Z,2.20
2018-02-12T19:03:21.353Z,2.10
2018-02-12T19:05:50.302Z,2.20
2018-02-12T19:08:18.492Z,2.20
2018-02-12T19:10:46.698Z,2.20
2018-02-12T19:13:15.646Z,2.20
2018-02-12T19:15:43.810Z,2.20
2018-02-12T19:18:11.994Z,2.20
2018-02-12T19:20:40.165Z,2.20
2018-02-12T19:23:08.345Z,2.30
2018-02-12T19:25:36.555Z,2.30
2018-02-12T19:28:04.751Z,2.20
2018-02-12T19:30:33.706Z,2.20
2018-02-12T19:33:01.886Z,2.20
2018-02-12T19:35:30.064Z,2.20
2018-02-12T19:37:58.236Z,2.20
2018-02-12T19:40:26.413Z,2.20
2018-02-12T19:42:54.604Z,2.20
2018-02-12T19:45:23.556Z,2.10
2018-02-12T19:47:51.754Z,2.10
2018-02-12T19:50:19.952Z,2.20
2018-02-12T19:52:48.892Z,2.20
2018-02-12T19:55:17.085Z,2.10
2018-02-12T19:57:45.274Z,2.10
2018-02-12T20:00:13.467Z,2.10
2018-02-12T20:02:42.414Z,2.20
2018-02-12T20:05:10.602Z,2.10
2018-02-12T20:07:39.058Z,2.10
2018-02-12T20:10:07.245Z,2.20
2018-02-12T20:12:35.422Z,2.20
2018-02-12T20:15:03.598Z,2.20
2018-02-12T20:17:31.784Z,2.20
2018-02-12T20:19:59.950Z,2.20
2018-02-12T20:22:28.118Z,2.20
2018-02-12T20:24:56.301Z,2.20
2018-02-12T20:27:24.479Z,2.20
2018-02-12T20:29:52.654Z,2.20
2018-02-12T20:32:20.839Z,2.20
2018-02-12T20:34:49.047Z,2.20
2018-02-12T20:37:17.978Z,2.20
2018-02-12T20:39:46.167Z,2.20
2018-02-12T20:42:14.366Z,2.20
2018-02-12T20:44:42.567Z,2.20
2018-02-12T20:47:11.498Z,2.20
2018-02-12T20:49:39.679Z,2.10
2018-02-12T20:52:07.862Z,2.20
2018-02-12T20:54:36.055Z,2.20
2018-02-12T20:57:04.243Z,2.30
2018-02-12T20:59:33.195Z,2.30
2018-02-12T21:02:01.383Z,2.30
2018-02-12T21:04:29.561Z,2.40
2018-02-12T21:06:57.755Z,2.50
2018-02-12T21:09:25.918Z,2.60
2018-02-12T21:11:54.101Z,2.50
2018-02-12T21:14:22.291Z,2.40
2018-02-12T21:16:51.223Z,2.60
2018-02-12T21:19:19.404Z,2.50
2018-02-12T21:21:47.579Z,2.60
2018-02-12T21:24:15.770Z,2.60
2018-02-12T21:26:43.940Z,2.60
2018-02-12T21:29:12.110Z,2.60
2018-02-12T21:31:40.279Z,2.60
2018-02-12T21:34:08.457Z,2.50
2018-02-12T21:36:36.641Z,2.50
2018-02-12T21:39:04.853Z,2.60
2018-02-12T21:41:33.795Z,2.50
2018-02-12T21:44:01.970Z,2.40
2018-02-12T21:46:30.160Z,2.40
2018-02-12T21:48:58.327Z,2.30
2018-02-12T21:51:26.505Z,2.30
2018-02-12T21:53:54.682Z,2.20
2018-02-12T21:56:22.868Z,2.20
2018-02-12T21:58:51.038Z,2.20
2018-02-12T22:01:19.286Z,2.20
2018-02-12T22:03:47.450Z,2.30
2018-02-12T22:06:15.630Z,2.30
2018-02-12T22:08:43.824Z,2.30
2018-02-12T22:11:12.024Z,2.20
2018-02-12T22:13:40.203Z,2.20
2018-02-12T22:16:08.380Z,2.20
2018-02-12T22:18:36.556Z,2.20
2018-02-12T22:21:04.745Z,2.20
2018-02-12T22:23:32.951Z,2.20
2018-02-12T22:26:01.127Z,2.20
2018-02-12T22:28:29.302Z,2.20
2018-02-12T22:30:57.472Z,2.20
2018-02-12T22:33:25.642Z,2.20
2018-02-12T22:35:53.809Z,2.20
2018-02-12T22:38:21.981Z,2.20
2018-02-12T22:40:50.156Z,2.10
2018-02-12T22:43:18.332Z,2.10
2018-02-12T22:45:46.501Z,2.10
2018-02-12T22:48:14.666Z,2.10
2018-02-12T22:50:43.592Z,2.00
2018-02-12T22:53:11.762Z,2.00
2018-02-12T22:55:39.937Z,2.00
2018-02-12T22:58:08.110Z,2.00
2018-02-12T23:00:36.281Z,2.10
2018-02-12T23:03:04.459Z,2.00
2018-02-12T23:05:32.636Z,2.00
2018-02-12T23:08:00.798Z,2.00
2018-02-12T23:10:28.973Z,2.00
2018-02-12T23:12:57.137Z,2.00
2018-02-12T23:15:30.809Z,1.90
2018-02-12T23:17:58.982Z,2.00
2018-02-12T23:20:27.154Z,1.90
2018-02-12T23:22:55.333Z,1.90
2018-02-12T23:25:23.521Z,1.80
2018-02-12T23:27:52.451Z,1.80
2018-02-12T23:30:20.632Z,1.80
2018-02-12T23:32:48.807Z,1.80
2018-02-12T23:35:16.970Z,1.80
2018-02-12T23:37:45.128Z,1.80
2018-02-12T23:40:13.302Z,1.80
2018-02-12T23:42:41.481Z,1.70
2018-02-12T23:45:10.418Z,1.70
2018-02-12T23:47:38.592Z,1.70
2018-02-12T23:50:06.783Z,1.70
2018-02-12T23:52:35.001Z,1.70
2018-02-12T23:55:03.910Z,1.70
2018-02-12T23:57:32.111Z,1.70
